sensor_id;sensor_type;location;lat;lon;timestamp;temperature;humidity
4699;DHT22;33708;49.466;11.176;2024-03-08T00:01:48;-0.20;1.00
4699;DHT22;33708;49.466;11.176;2024-03-08T00:04:13;-0.20;1.00
4699;DHT22;33708;49.466;11.176;2024-03-08T00:06:41;-0.30;1.00
4699;DHT22;33708;49.466;11.176;2024-03-08T00:09:06;0.60;1.00
4699;DHT22;33708;49.466;11.176;2024-03-08T00:11:34;0.10;1.00
4699;DHT22;33708;49.466;11.176;2024-03-08T00:14:00;-0.30;1.00
4699;DHT22;33708;49.466;11.176;2024-03-08T00:16:25;-0.30;1.00
4699;DHT22;33708;49.466;11.176;2024-03-08T00:18:51;-0.30;1.00
4699;DHT22;33708;49.466;11.176;2024-03-08T00:21:17;-0.40;1.00
4699;DHT22;33708;49.466;11.176;2024-03-08T00:23:42;-0.40;1.00
4699;DHT22;33708;49.466;11.176;2024-03-08T00:26:08;-0.50;1.00
4699;DHT22;33708;49.466;11.176;2024-03-08T00:28:34;-0.40;1.00
4699;DHT22;33708;49.466;11.176;2024-03-08T00:31:00;-0.40;1.00
4699;DHT22;33708;49.466;11.176;2024-03-08T00:33:26;-0.40;1.00
4699;DHT22;33708;49.466;11.176;2024-03-08T00:35:56;-0.60;1.00
4699;DHT22;33708;49.466;11.176;2024-03-08T00:38:21;-0.70;1.00
4699;DHT22;33708;49.466;11.176;2024-03-08T00:40:47;-0.70;1.00
4699;DHT22;33708;49.466;11.176;2024-03-08T00:43:13;-0.80;1.00
4699;DHT22;33708;49.466;11.176;2024-03-08T00:45:38;-0.90;1.00
4699;DHT22;33708;49.466;11.176;2024-03-08T00:48:07;-0.90;1.00
4699;DHT22;33708;49.466;11.176;2024-03-08T00:50:32;-0.90;1.00
4699;DHT22;33708;49.466;11.176;2024-03-08T00:52:59;-1.00;1.00
4699;DHT22;33708;49.466;11.176;2024-03-08T00:55:25;-1.10;1.00
4699;DHT22;33708;49.466;11.176;2024-03-08T00:57:51;-1.00;1.00
4699;DHT22;33708;49.466;11.176;2024-03-08T01:00:18;-1.10;1.00
4699;DHT22;33708;49.466;11.176;2024-03-08T01:02:46;-1.00;1.00
4699;DHT22;33708;49.466;11.176;2024-03-08T01:05:11;-0.90;1.00
4699;DHT22;33708;49.466;11.176;2024-03-08T01:07:37;-1.00;1.00
4699;DHT22;33708;49.466;11.176;2024-03-08T01:10:06;-0.80;1.00
4699;DHT22;33708;49.466;11.176;2024-03-08T01:12:38;-0.80;1.00
4699;DHT22;33708;49.466;11.176;2024-03-08T01:15:04;-0.70;1.00
4699;DHT22;33708;49.466;11.176;2024-03-08T01:17:30;-0.70;1.00
4699;DHT22;33708;49.466;11.176;2024-03-08T01:19:56;-0.50;1.00
4699;DHT22;33708;49.466;11.176;2024-03-08T01:22:22;-0.40;1.00
4699;DHT22;33708;49.466;11.176;2024-03-08T01:24:48;-0.30;1.00
4699;DHT22;33708;49.466;11.176;2024-03-08T01:27:14;-0.30;1.00
4699;DHT22;33708;49.466;11.176;2024-03-08T01:29:39;-0.30;1.00
4699;DHT22;33708;49.466;11.176;2024-03-08T01:32:05;-0.20;1.00
4699;DHT22;33708;49.466;11.176;2024-03-08T01:34:31;-0.20;1.00
4699;DHT22;33708;49.466;11.176;2024-03-08T01:36:58;-0.20;1.00
4699;DHT22;33708;49.466;11.176;2024-03-08T01:39:25;-0.10;1.00
4699;DHT22;33708;49.466;11.176;2024-03-08T01:41:50;-0.10;1.00
4699;DHT22;33708;49.466;11.176;2024-03-08T01:44:16;0.10;1.00
4699;DHT22;33708;49.466;11.176;2024-03-08T01:46:46;0.00;1.00
4699;DHT22;33708;49.466;11.176;2024-03-08T01:49:13;0.10;1.00
4699;DHT22;33708;49.466;11.176;2024-03-08T01:51:40;0.10;1.00
4699;DHT22;33708;49.466;11.176;2024-03-08T01:54:07;0.10;1.00
4699;DHT22;33708;49.466;11.176;2024-03-08T01:56:36;0.10;1.00
4699;DHT22;33708;49.466;11.176;2024-03-08T01:59:01;0.10;1.00
4699;DHT22;33708;49.466;11.176;2024-03-08T02:01:28;0.10;1.00
4699;DHT22;33708;49.466;11.176;2024-03-08T02:03:54;0.10;1.00
4699;DHT22;33708;49.466;11.176;2024-03-08T02:06:19;0.00;1.00
4699;DHT22;33708;49.466;11.176;2024-03-08T02:08:46;0.00;1.00
4699;DHT22;33708;49.466;11.176;2024-03-08T02:11:12;0.10;1.00
4699;DHT22;33708;49.466;11.176;2024-03-08T02:13:38;0.00;1.00
4699;DHT22;33708;49.466;11.176;2024-03-08T02:16:04;0.10;1.00
4699;DHT22;33708;49.466;11.176;2024-03-08T02:18:33;0.00;1.00
4699;DHT22;33708;49.466;11.176;2024-03-08T02:21:00;0.00;1.00
4699;DHT22;33708;49.466;11.176;2024-03-08T02:23:28;0.00;1.00
4699;DHT22;33708;49.466;11.176;2024-03-08T02:25:55;-0.10;1.00
4699;DHT22;33708;49.466;11.176;2024-03-08T02:28:21;-0.10;1.00
4699;DHT22;33708;49.466;11.176;2024-03-08T02:30:47;-0.10;1.00
4699;DHT22;33708;49.466;11.176;2024-03-08T02:33:14;-0.20;1.00
4699;DHT22;33708;49.466;11.176;2024-03-08T02:35:46;-0.20;1.00
4699;DHT22;33708;49.466;11.176;2024-03-08T02:38:22;-0.20;1.00
4699;DHT22;33708;49.466;11.176;2024-03-08T02:40:50;-0.20;1.00
4699;DHT22;33708;49.466;11.176;2024-03-08T02:43:18;-0.20;1.00
4699;DHT22;33708;49.466;11.176;2024-03-08T02:45:43;-0.20;1.00
4699;DHT22;33708;49.466;11.176;2024-03-08T02:48:10;-0.30;1.00
4699;DHT22;33708;49.466;11.176;2024-03-08T02:50:36;-0.30;1.00
4699;DHT22;33708;49.466;11.176;2024-03-08T02:53:03;-0.30;1.00
4699;DHT22;33708;49.466;11.176;2024-03-08T02:55:29;-0.30;1.00
4699;DHT22;33708;49.466;11.176;2024-03-08T02:57:55;-0.30;1.00
4699;DHT22;33708;49.466;11.176;2024-03-08T03:00:22;-0.30;1.00
4699;DHT22;33708;49.466;11.176;2024-03-08T03:02:50;-0.30;1.00
4699;DHT22;33708;49.466;11.176;2024-03-08T03:05:25;-0.40;1.00
4699;DHT22;33708;49.466;11.176;2024-03-08T03:07:51;-0.40;1.00
4699;DHT22;33708;49.466;11.176;2024-03-08T03:10:17;-0.40;1.00
4699;DHT22;33708;49.466;11.176;2024-03-08T03:12:43;-0.40;1.00
4699;DHT22;33708;49.466;11.176;2024-03-08T03:15:10;-0.40;1.00
4699;DHT22;33708;49.466;11.176;2024-03-08T03:17:37;-0.50;1.00
4699;DHT22;33708;49.466;11.176;2024-03-08T03:20:05;-0.50;1.00
4699;DHT22;33708;49.466;11.176;2024-03-08T03:22:36;-0.50;1.00
4699;DHT22;33708;49.466;11.176;2024-03-08T03:25:02;-0.50;1.00
4699;DHT22;33708;49.466;11.176;2024-03-08T03:27:29;-0.50;1.00
4699;DHT22;33708;49.466;11.176;2024-03-08T03:29:56;-0.50;1.00
4699;DHT22;33708;49.466;11.176;2024-03-08T03:32:23;-0.60;1.00
4699;DHT22;33708;49.466;11.176;2024-03-08T03:34:49;-0.60;1.00
4699;DHT22;33708;49.466;11.176;2024-03-08T03:37:20;-0.60;1.00
4699;DHT22;33708;49.466;11.176;2024-03-08T03:39:46;-0.60;1.00
4699;DHT22;33708;49.466;11.176;2024-03-08T03:42:17;-0.60;1.00
4699;DHT22;33708;49.466;11.176;2024-03-08T03:44:49;-0.60;1.00
4699;DHT22;33708;49.466;11.176;2024-03-08T03:47:15;-0.70;1.00
4699;DHT22;33708;49.466;11.176;2024-03-08T03:49:41;-0.70;1.00
4699;DHT22;33708;49.466;11.176;2024-03-08T03:52:08;-0.60;1.00
4699;DHT22;33708;49.466;11.176;2024-03-08T03:54:33;-0.70;1.00
4699;DHT22;33708;49.466;11.176;2024-03-08T03:56:59;-0.60;1.00
4699;DHT22;33708;49.466;11.176;2024-03-08T03:59:26;-0.70;1.00
4699;DHT22;33708;49.466;11.176;2024-03-08T04:01:53;-0.60;1.00
4699;DHT22;33708;49.466;11.176;2024-03-08T04:04:18;-0.70;1.00
4699;DHT22;33708;49.466;11.176;2024-03-08T04:06:44;-0.70;1.00
4699;DHT22;33708;49.466;11.176;2024-03-08T04:09:10;-0.60;1.00
4699;DHT22;33708;49.466;11.176;2024-03-08T04:11:38;-0.70;1.00
4699;DHT22;33708;49.466;11.176;2024-03-08T04:14:03;-0.80;1.00
4699;DHT22;33708;49.466;11.176;2024-03-08T04:16:30;-0.80;1.00
4699;DHT22;33708;49.466;11.176;2024-03-08T04:18:57;-0.80;1.00
4699;DHT22;33708;49.466;11.176;2024-03-08T04:21:22;-0.80;1.00
4699;DHT22;33708;49.466;11.176;2024-03-08T04:23:48;-0.80;1.00
4699;DHT22;33708;49.466;11.176;2024-03-08T04:26:13;-0.80;1.00
4699;DHT22;33708;49.466;11.176;2024-03-08T04:28:39;-0.80;1.00
4699;DHT22;33708;49.466;11.176;2024-03-08T04:31:05;-0.90;1.00
4699;DHT22;33708;49.466;11.176;2024-03-08T04:33:32;-0.80;1.00
4699;DHT22;33708;49.466;11.176;2024-03-08T04:35:57;-0.80;1.00
4699;DHT22;33708;49.466;11.176;2024-03-08T04:38:23;-0.90;1.00
4699;DHT22;33708;49.466;11.176;2024-03-08T04:40:50;-0.90;1.00
4699;DHT22;33708;49.466;11.176;2024-03-08T04:43:15;-0.90;1.00
4699;DHT22;33708;49.466;11.176;2024-03-08T04:45:44;-1.00;1.00
4699;DHT22;33708;49.466;11.176;2024-03-08T04:48:09;-1.00;1.00
4699;DHT22;33708;49.466;11.176;2024-03-08T04:50:36;-1.00;1.00
4699;DHT22;33708;49.466;11.176;2024-03-08T04:53:03;-1.00;1.00
4699;DHT22;33708;49.466;11.176;2024-03-08T04:55:30;-1.00;1.00
4699;DHT22;33708;49.466;11.176;2024-03-08T04:57:55;-0.90;1.00
4699;DHT22;33708;49.466;11.176;2024-03-08T05:00:21;-0.90;1.00
4699;DHT22;33708;49.466;11.176;2024-03-08T05:02:46;-0.40;1.20
4699;DHT22;33708;49.466;11.176;2024-03-08T05:05:12;-0.80;1.00
4699;DHT22;33708;49.466;11.176;2024-03-08T05:07:38;-0.80;1.00
4699;DHT22;33708;49.466;11.176;2024-03-08T05:10:05;-0.70;1.00
4699;DHT22;33708;49.466;11.176;2024-03-08T05:12:32;-0.70;1.50
4699;DHT22;33708;49.466;11.176;2024-03-08T05:14:58;-0.60;2.30
4699;DHT22;33708;49.466;11.176;2024-03-08T05:17:24;-0.50;3.00
4699;DHT22;33708;49.466;11.176;2024-03-08T05:19:50;-0.50;3.40
4699;DHT22;33708;49.466;11.176;2024-03-08T05:22:16;-0.60;4.30
4699;DHT22;33708;49.466;11.176;2024-03-08T05:24:43;-0.60;3.10
4699;DHT22;33708;49.466;11.176;2024-03-08T05:27:08;-0.50;4.30
4699;DHT22;33708;49.466;11.176;2024-03-08T05:29:34;-0.50;4.30
4699;DHT22;33708;49.466;11.176;2024-03-08T05:32:00;-0.50;5.90
4699;DHT22;33708;49.466;11.176;2024-03-08T05:34:25;-0.50;5.90
4699;DHT22;33708;49.466;11.176;2024-03-08T05:36:53;0.70;5.60
4699;DHT22;33708;49.466;11.176;2024-03-08T05:39:20;-0.50;5.30
4699;DHT22;33708;49.466;11.176;2024-03-08T05:41:46;-0.60;5.20
4699;DHT22;33708;49.466;11.176;2024-03-08T05:44:12;-0.50;7.80
4699;DHT22;33708;49.466;11.176;2024-03-08T05:46:38;-0.60;5.60
4699;DHT22;33708;49.466;11.176;2024-03-08T05:49:04;-0.50;6.10
4699;DHT22;33708;49.466;11.176;2024-03-08T05:51:34;-0.50;5.90
4699;DHT22;33708;49.466;11.176;2024-03-08T05:54:04;-0.50;6.40
4699;DHT22;33708;49.466;11.176;2024-03-08T05:56:34;-0.50;6.70
4699;DHT22;33708;49.466;11.176;2024-03-08T05:59:00;-0.40;7.80
4699;DHT22;33708;49.466;11.176;2024-03-08T06:01:26;-0.40;8.70
4699;DHT22;33708;49.466;11.176;2024-03-08T06:03:56;-0.40;8.30
4699;DHT22;33708;49.466;11.176;2024-03-08T06:06:25;-0.30;9.10
4699;DHT22;33708;49.466;11.176;2024-03-08T06:08:52;-0.20;8.90
4699;DHT22;33708;49.466;11.176;2024-03-08T06:11:19;-0.20;10.00
4699;DHT22;33708;49.466;11.176;2024-03-08T06:13:45;-0.10;10.40
4699;DHT22;33708;49.466;11.176;2024-03-08T06:16:11;0.10;12.40
4699;DHT22;33708;49.466;11.176;2024-03-08T06:18:38;0.70;19.00
4699;DHT22;33708;49.466;11.176;2024-03-08T06:21:05;0.90;16.00
4699;DHT22;33708;49.466;11.176;2024-03-08T06:23:34;1.30;18.20
4699;DHT22;33708;49.466;11.176;2024-03-08T06:26:07;2.00;21.70
4699;DHT22;33708;49.466;11.176;2024-03-08T06:28:32;2.50;21.30
4699;DHT22;33708;49.466;11.176;2024-03-08T06:31:01;2.30;15.10
4699;DHT22;33708;49.466;11.176;2024-03-08T06:33:28;2.20;13.00
4699;DHT22;33708;49.466;11.176;2024-03-08T06:35:54;2.00;8.80
4699;DHT22;33708;49.466;11.176;2024-03-08T06:38:23;1.90;9.30
4699;DHT22;33708;49.466;11.176;2024-03-08T06:40:49;2.00;11.80
4699;DHT22;33708;49.466;11.176;2024-03-08T06:43:14;2.50;15.10
4699;DHT22;33708;49.466;11.176;2024-03-08T06:45:44;2.70;16.50
4699;DHT22;33708;49.466;11.176;2024-03-08T06:48:18;2.80;15.90
4699;DHT22;33708;49.466;11.176;2024-03-08T06:50:45;3.00;15.00
4699;DHT22;33708;49.466;11.176;2024-03-08T06:53:11;4.10;22.20
4699;DHT22;33708;49.466;11.176;2024-03-08T06:55:37;4.00;18.30
4699;DHT22;33708;49.466;11.176;2024-03-08T06:58:03;4.70;17.20
4699;DHT22;33708;49.466;11.176;2024-03-08T07:00:28;5.40;19.40
4699;DHT22;33708;49.466;11.176;2024-03-08T07:02:58;5.90;18.60
4699;DHT22;33708;49.466;11.176;2024-03-08T07:05:28;6.00;16.60
4699;DHT22;33708;49.466;11.176;2024-03-08T07:07:53;7.60;21.60
4699;DHT22;33708;49.466;11.176;2024-03-08T07:10:21;7.10;15.00
4699;DHT22;33708;49.466;11.176;2024-03-08T07:12:49;8.00;19.50
4699;DHT22;33708;49.466;11.176;2024-03-08T07:15:14;7.30;10.00
4699;DHT22;33708;49.466;11.176;2024-03-08T07:17:41;7.40;9.40
4699;DHT22;33708;49.466;11.176;2024-03-08T07:20:10;8.10;12.00
4699;DHT22;33708;49.466;11.176;2024-03-08T07:22:38;9.10;13.20
4699;DHT22;33708;49.466;11.176;2024-03-08T07:25:07;9.40;14.70
4699;DHT22;33708;49.466;11.176;2024-03-08T07:27:52;9.20;8.30
4699;DHT22;33708;49.466;11.176;2024-03-08T07:30:19;9.20;2.90
4699;DHT22;33708;49.466;11.176;2024-03-08T07:33:04;8.90;2.40
4699;DHT22;33708;49.466;11.176;2024-03-08T07:35:29;9.40;4.50
4699;DHT22;33708;49.466;11.176;2024-03-08T07:37:57;9.30;2.00
4699;DHT22;33708;49.466;11.176;2024-03-08T07:40:25;10.00;11.60
4699;DHT22;33708;49.466;11.176;2024-03-08T07:42:51;10.10;1.00
4699;DHT22;33708;49.466;11.176;2024-03-08T07:45:17;9.40;1.00
4699;DHT22;33708;49.466;11.176;2024-03-08T07:47:43;8.80;1.00
4699;DHT22;33708;49.466;11.176;2024-03-08T07:50:09;9.00;1.00
4699;DHT22;33708;49.466;11.176;2024-03-08T07:52:35;8.70;1.00
4699;DHT22;33708;49.466;11.176;2024-03-08T07:55:02;9.30;1.00
4699;DHT22;33708;49.466;11.176;2024-03-08T07:57:29;9.60;1.00
4699;DHT22;33708;49.466;11.176;2024-03-08T07:59:55;10.90;1.00
4699;DHT22;33708;49.466;11.176;2024-03-08T08:02:21;10.40;99.90
4699;DHT22;33708;49.466;11.176;2024-03-08T08:04:46;10.20;1.00
4699;DHT22;33708;49.466;11.176;2024-03-08T08:07:12;11.50;1.00
4699;DHT22;33708;49.466;11.176;2024-03-08T08:09:37;9.80;99.90
4699;DHT22;33708;49.466;11.176;2024-03-08T08:12:04;11.80;99.90
4699;DHT22;33708;49.466;11.176;2024-03-08T08:14:30;11.80;99.90
4699;DHT22;33708;49.466;11.176;2024-03-08T08:16:56;13.20;99.90
4699;DHT22;33708;49.466;11.176;2024-03-08T08:19:23;11.90;1.00
4699;DHT22;33708;49.466;11.176;2024-03-08T08:21:54;12.90;1.00
4699;DHT22;33708;49.466;11.176;2024-03-08T08:24:20;13.40;36.50
4699;DHT22;33708;49.466;11.176;2024-03-08T08:29:16;12.90;99.90
4699;DHT22;33708;49.466;11.176;2024-03-08T08:31:41;13.00;1.00
4699;DHT22;33708;49.466;11.176;2024-03-08T08:34:09;12.40;1.00
4699;DHT22;33708;49.466;11.176;2024-03-08T08:36:34;13.90;1.00
4699;DHT22;33708;49.466;11.176;2024-03-08T08:39:00;12.70;1.00
4699;DHT22;33708;49.466;11.176;2024-03-08T08:41:28;12.60;1.00
4699;DHT22;33708;49.466;11.176;2024-03-08T08:43:54;12.70;1.00
4699;DHT22;33708;49.466;11.176;2024-03-08T08:46:20;12.10;1.00
4699;DHT22;33708;49.466;11.176;2024-03-08T08:48:46;12.60;1.00
4699;DHT22;33708;49.466;11.176;2024-03-08T08:51:12;12.20;1.00
4699;DHT22;33708;49.466;11.176;2024-03-08T08:53:42;13.10;1.00
4699;DHT22;33708;49.466;11.176;2024-03-08T08:56:13;12.80;1.00
4699;DHT22;33708;49.466;11.176;2024-03-08T08:58:39;11.60;1.00
4699;DHT22;33708;49.466;11.176;2024-03-08T09:01:06;12.20;1.00
4699;DHT22;33708;49.466;11.176;2024-03-08T09:03:33;13.10;1.00
4699;DHT22;33708;49.466;11.176;2024-03-08T09:06:00;13.30;1.00
4699;DHT22;33708;49.466;11.176;2024-03-08T09:08:26;13.60;1.00
4699;DHT22;33708;49.466;11.176;2024-03-08T09:10:51;13.70;1.00
4699;DHT22;33708;49.466;11.176;2024-03-08T09:13:17;13.90;1.00
4699;DHT22;33708;49.466;11.176;2024-03-08T09:15:43;13.10;1.00
4699;DHT22;33708;49.466;11.176;2024-03-08T09:18:09;12.70;1.00
4699;DHT22;33708;49.466;11.176;2024-03-08T09:20:35;12.40;1.00
4699;DHT22;33708;49.466;11.176;2024-03-08T09:23:02;11.40;1.00
4699;DHT22;33708;49.466;11.176;2024-03-08T09:25:29;11.70;1.00
4699;DHT22;33708;49.466;11.176;2024-03-08T09:27:55;10.50;1.00
4699;DHT22;33708;49.466;11.176;2024-03-08T09:30:21;11.50;1.00
4699;DHT22;33708;49.466;11.176;2024-03-08T09:32:47;12.10;1.00
4699;DHT22;33708;49.466;11.176;2024-03-08T09:35:13;12.40;1.00
4699;DHT22;33708;49.466;11.176;2024-03-08T09:37:38;11.20;1.00
4699;DHT22;33708;49.466;11.176;2024-03-08T09:40:04;10.60;1.00
4699;DHT22;33708;49.466;11.176;2024-03-08T09:42:35;9.50;1.00
4699;DHT22;33708;49.466;11.176;2024-03-08T09:45:13;8.90;1.00
4699;DHT22;33708;49.466;11.176;2024-03-08T09:47:43;8.10;1.00
4699;DHT22;33708;49.466;11.176;2024-03-08T09:50:10;8.40;1.00
4699;DHT22;33708;49.466;11.176;2024-03-08T09:52:38;8.00;1.00
4699;DHT22;33708;49.466;11.176;2024-03-08T09:55:09;7.80;1.00
4699;DHT22;33708;49.466;11.176;2024-03-08T09:57:40;8.00;1.00
4699;DHT22;33708;49.466;11.176;2024-03-08T10:00:06;7.70;1.00
4699;DHT22;33708;49.466;11.176;2024-03-08T10:02:50;7.70;1.00
4699;DHT22;33708;49.466;11.176;2024-03-08T10:05:18;7.30;1.00
4699;DHT22;33708;49.466;11.176;2024-03-08T10:07:44;7.30;1.00
4699;DHT22;33708;49.466;11.176;2024-03-08T10:10:09;7.30;1.00
4699;DHT22;33708;49.466;11.176;2024-03-08T10:12:38;7.40;1.00
4699;DHT22;33708;49.466;11.176;2024-03-08T10:15:08;7.60;1.00
4699;DHT22;33708;49.466;11.176;2024-03-08T10:17:37;7.50;1.00
4699;DHT22;33708;49.466;11.176;2024-03-08T10:20:03;7.50;1.00
4699;DHT22;33708;49.466;11.176;2024-03-08T10:22:30;7.50;1.00
4699;DHT22;33708;49.466;11.176;2024-03-08T10:24:57;7.70;1.00
4699;DHT22;33708;49.466;11.176;2024-03-08T10:27:22;7.70;1.00
4699;DHT22;33708;49.466;11.176;2024-03-08T10:29:48;7.60;1.00
4699;DHT22;33708;49.466;11.176;2024-03-08T10:32:15;7.90;1.00
4699;DHT22;33708;49.466;11.176;2024-03-08T10:34:41;7.90;1.00
4699;DHT22;33708;49.466;11.176;2024-03-08T10:37:07;7.80;1.00
4699;DHT22;33708;49.466;11.176;2024-03-08T10:39:39;8.20;1.00
4699;DHT22;33708;49.466;11.176;2024-03-08T10:42:11;8.30;1.00
4699;DHT22;33708;49.466;11.176;2024-03-08T10:44:49;8.40;1.00
4699;DHT22;33708;49.466;11.176;2024-03-08T10:47:26;8.10;1.00
4699;DHT22;33708;49.466;11.176;2024-03-08T10:49:59;8.10;1.00
4699;DHT22;33708;49.466;11.176;2024-03-08T10:52:29;8.40;1.00
4699;DHT22;33708;49.466;11.176;2024-03-08T10:54:56;9.20;1.00
4699;DHT22;33708;49.466;11.176;2024-03-08T10:57:22;8.40;1.00
4699;DHT22;33708;49.466;11.176;2024-03-08T10:59:50;8.80;1.00
4699;DHT22;33708;49.466;11.176;2024-03-08T11:02:17;8.90;1.00
4699;DHT22;33708;49.466;11.176;2024-03-08T11:04:48;8.60;1.00
4699;DHT22;33708;49.466;11.176;2024-03-08T11:07:14;8.90;1.00
4699;DHT22;33708;49.466;11.176;2024-03-08T11:09:42;8.80;1.00
4699;DHT22;33708;49.466;11.176;2024-03-08T11:12:29;9.00;1.00
4699;DHT22;33708;49.466;11.176;2024-03-08T11:15:12;9.00;1.00
4699;DHT22;33708;49.466;11.176;2024-03-08T11:22:53;9.40;1.00
4699;DHT22;33708;49.466;11.176;2024-03-08T11:28:20;9.30;1.00
4699;DHT22;33708;49.466;11.176;2024-03-08T11:33:28;9.20;1.00
4699;DHT22;33708;49.466;11.176;2024-03-08T11:36:12;9.20;1.00
4699;DHT22;33708;49.466;11.176;2024-03-08T11:38:44;9.10;1.00
4699;DHT22;33708;49.466;11.176;2024-03-08T11:41:10;9.40;1.00
4699;DHT22;33708;49.466;11.176;2024-03-08T11:43:40;9.40;1.00
4699;DHT22;33708;49.466;11.176;2024-03-08T11:46:10;9.90;1.00
4699;DHT22;33708;49.466;11.176;2024-03-08T11:48:39;9.60;1.00
4699;DHT22;33708;49.466;11.176;2024-03-08T11:51:07;9.70;1.00
4699;DHT22;33708;49.466;11.176;2024-03-08T11:53:33;9.90;1.00
4699;DHT22;33708;49.466;11.176;2024-03-08T11:56:12;10.20;1.00
4699;DHT22;33708;49.466;11.176;2024-03-08T11:58:40;10.20;1.00
4699;DHT22;33708;49.466;11.176;2024-03-08T12:01:07;10.40;1.00
4699;DHT22;33708;49.466;11.176;2024-03-08T12:03:34;10.40;1.00
4699;DHT22;33708;49.466;11.176;2024-03-08T12:06:00;10.40;1.00
4699;DHT22;33708;49.466;11.176;2024-03-08T12:08:27;10.60;1.00
4699;DHT22;33708;49.466;11.176;2024-03-08T12:10:56;10.70;1.00
4699;DHT22;33708;49.466;11.176;2024-03-08T12:13:30;10.40;1.00
4699;DHT22;33708;49.466;11.176;2024-03-08T12:16:00;10.90;1.00
4699;DHT22;33708;49.466;11.176;2024-03-08T12:18:26;12.00;1.00
4699;DHT22;33708;49.466;11.176;2024-03-08T12:21:07;10.50;1.00
4699;DHT22;33708;49.466;11.176;2024-03-08T12:23:38;10.50;1.00
4699;DHT22;33708;49.466;11.176;2024-03-08T12:26:18;10.40;1.00
4699;DHT22;33708;49.466;11.176;2024-03-08T12:28:48;10.60;1.00
4699;DHT22;33708;49.466;11.176;2024-03-08T12:31:15;10.70;1.00
4699;DHT22;33708;49.466;11.176;2024-03-08T12:33:52;10.70;1.00
4699;DHT22;33708;49.466;11.176;2024-03-08T12:36:20;10.40;1.00
4699;DHT22;33708;49.466;11.176;2024-03-08T12:38:46;10.50;1.00
4699;DHT22;33708;49.466;11.176;2024-03-08T12:41:14;10.60;1.00
4699;DHT22;33708;49.466;11.176;2024-03-08T12:43:40;10.50;1.00
4699;DHT22;33708;49.466;11.176;2024-03-08T12:46:05;10.70;1.00
4699;DHT22;33708;49.466;11.176;2024-03-08T12:48:37;10.50;1.00
4699;DHT22;33708;49.466;11.176;2024-03-08T12:51:06;10.30;1.00
4699;DHT22;33708;49.466;11.176;2024-03-08T12:53:33;10.60;1.00
4699;DHT22;33708;49.466;11.176;2024-03-08T12:55:58;10.50;1.00
4699;DHT22;33708;49.466;11.176;2024-03-08T12:58:24;10.70;1.00
4699;DHT22;33708;49.466;11.176;2024-03-08T13:00:51;10.50;1.00
4699;DHT22;33708;49.466;11.176;2024-03-08T13:03:17;10.80;1.00
4699;DHT22;33708;49.466;11.176;2024-03-08T13:05:43;10.90;1.00
4699;DHT22;33708;49.466;11.176;2024-03-08T13:08:09;10.70;1.00
4699;DHT22;33708;49.466;11.176;2024-03-08T13:10:41;11.00;1.00
4699;DHT22;33708;49.466;11.176;2024-03-08T13:13:11;11.00;1.00
4699;DHT22;33708;49.466;11.176;2024-03-08T13:15:40;10.80;1.00
4699;DHT22;33708;49.466;11.176;2024-03-08T13:18:06;10.90;1.00
4699;DHT22;33708;49.466;11.176;2024-03-08T13:20:34;11.20;1.00
4699;DHT22;33708;49.466;11.176;2024-03-08T13:23:03;11.00;1.00
4699;DHT22;33708;49.466;11.176;2024-03-08T13:25:30;10.80;1.00
4699;DHT22;33708;49.466;11.176;2024-03-08T13:27:56;10.90;1.00
4699;DHT22;33708;49.466;11.176;2024-03-08T13:30:24;11.10;1.00
4699;DHT22;33708;49.466;11.176;2024-03-08T13:32:52;11.30;1.00
4699;DHT22;33708;49.466;11.176;2024-03-08T13:35:18;11.20;1.00
4699;DHT22;33708;49.466;11.176;2024-03-08T13:37:51;11.30;1.00
4699;DHT22;33708;49.466;11.176;2024-03-08T13:40:17;11.30;1.00
4699;DHT22;33708;49.466;11.176;2024-03-08T13:42:48;11.20;1.00
4699;DHT22;33708;49.466;11.176;2024-03-08T13:45:14;11.30;1.00
4699;DHT22;33708;49.466;11.176;2024-03-08T13:47:43;11.40;1.00
4699;DHT22;33708;49.466;11.176;2024-03-08T13:50:10;11.40;1.00
4699;DHT22;33708;49.466;11.176;2024-03-08T13:52:41;11.40;1.00
4699;DHT22;33708;49.466;11.176;2024-03-08T13:55:09;11.20;1.00
4699;DHT22;33708;49.466;11.176;2024-03-08T13:57:35;11.20;1.00
4699;DHT22;33708;49.466;11.176;2024-03-08T14:00:01;11.20;1.00
4699;DHT22;33708;49.466;11.176;2024-03-08T14:02:27;11.30;1.00
4699;DHT22;33708;49.466;11.176;2024-03-08T14:04:57;11.10;1.00
4699;DHT22;33708;49.466;11.176;2024-03-08T14:07:23;11.20;1.00
4699;DHT22;33708;49.466;11.176;2024-03-08T14:09:52;11.40;1.00
4699;DHT22;33708;49.466;11.176;2024-03-08T14:12:18;11.40;1.00
4699;DHT22;33708;49.466;11.176;2024-03-08T14:14:44;11.10;1.00
4699;DHT22;33708;49.466;11.176;2024-03-08T14:17:10;11.40;1.00
4699;DHT22;33708;49.466;11.176;2024-03-08T14:19:36;11.40;1.00
4699;DHT22;33708;49.466;11.176;2024-03-08T14:22:04;11.30;1.00
4699;DHT22;33708;49.466;11.176;2024-03-08T14:24:30;11.40;1.00
4699;DHT22;33708;49.466;11.176;2024-03-08T14:26:56;11.40;1.00
4699;DHT22;33708;49.466;11.176;2024-03-08T14:29:25;11.10;1.00
4699;DHT22;33708;49.466;11.176;2024-03-08T14:31:57;11.20;1.00
4699;DHT22;33708;49.466;11.176;2024-03-08T14:34:27;11.10;1.00
4699;DHT22;33708;49.466;11.176;2024-03-08T14:36:54;11.10;1.00
4699;DHT22;33708;49.466;11.176;2024-03-08T14:39:20;11.30;1.00
4699;DHT22;33708;49.466;11.176;2024-03-08T14:41:52;11.30;1.00
4699;DHT22;33708;49.466;11.176;2024-03-08T14:44:20;11.00;1.00
4699;DHT22;33708;49.466;11.176;2024-03-08T14:46:47;10.90;1.00
4699;DHT22;33708;49.466;11.176;2024-03-08T14:49:14;10.80;1.00
4699;DHT22;33708;49.466;11.176;2024-03-08T14:51:39;11.00;1.00
4699;DHT22;33708;49.466;11.176;2024-03-08T14:54:05;11.00;1.00
4699;DHT22;33708;49.466;11.176;2024-03-08T14:56:32;10.80;1.00
4699;DHT22;33708;49.466;11.176;2024-03-08T14:58:58;10.90;1.00
4699;DHT22;33708;49.466;11.176;2024-03-08T15:01:25;11.00;1.00
4699;DHT22;33708;49.466;11.176;2024-03-08T15:03:55;10.90;1.00
4699;DHT22;33708;49.466;11.176;2024-03-08T15:06:21;10.80;1.00
4699;DHT22;33708;49.466;11.176;2024-03-08T15:08:47;10.80;1.00
4699;DHT22;33708;49.466;11.176;2024-03-08T15:11:13;10.60;1.00
4699;DHT22;33708;49.466;11.176;2024-03-08T15:13:51;10.80;1.00
4699;DHT22;33708;49.466;11.176;2024-03-08T15:16:19;10.70;1.00
4699;DHT22;33708;49.466;11.176;2024-03-08T15:18:48;10.70;1.00
4699;DHT22;33708;49.466;11.176;2024-03-08T15:21:14;10.60;1.00
4699;DHT22;33708;49.466;11.176;2024-03-08T15:23:45;10.60;1.00
4699;DHT22;33708;49.466;11.176;2024-03-08T15:26:16;10.50;1.00
4699;DHT22;33708;49.466;11.176;2024-03-08T15:28:43;10.50;1.00
4699;DHT22;33708;49.466;11.176;2024-03-08T15:31:10;10.40;1.00
4699;DHT22;33708;49.466;11.176;2024-03-08T15:33:37;10.20;1.00
4699;DHT22;33708;49.466;11.176;2024-03-08T15:36:11;10.20;1.00
4699;DHT22;33708;49.466;11.176;2024-03-08T15:38:39;10.20;1.00
4699;DHT22;33708;49.466;11.176;2024-03-08T15:41:05;10.20;1.00
4699;DHT22;33708;49.466;11.176;2024-03-08T15:43:39;10.10;1.00
4699;DHT22;33708;49.466;11.176;2024-03-08T15:46:09;10.00;1.00
4699;DHT22;33708;49.466;11.176;2024-03-08T15:48:36;10.00;1.00
4699;DHT22;33708;49.466;11.176;2024-03-08T15:51:03;9.90;1.00
4699;DHT22;33708;49.466;11.176;2024-03-08T15:53:34;9.80;1.00
4699;DHT22;33708;49.466;11.176;2024-03-08T15:56:01;9.80;1.00
4699;DHT22;33708;49.466;11.176;2024-03-08T15:58:28;9.70;1.00
4699;DHT22;33708;49.466;11.176;2024-03-08T16:00:55;9.60;1.00
4699;DHT22;33708;49.466;11.176;2024-03-08T16:03:22;9.60;1.00
4699;DHT22;33708;49.466;11.176;2024-03-08T16:05:48;9.40;1.00